Portada
METAR-TAF:

METAR-TAF

Aeroports :

Dortmund, Alemanya

latitud: 51-31N, longitud: 007-37E, altitud: 127 m

Observació

L'informe es va fer fa 23 minuts, a les 14:50 UTC
Vent 6 kt del Nord/Nord-Est
Temperatura 5°C
Humitat 81%
Pressió 1040 hPa
Visibilitat 10 km o més
Cel cobert a una alçada de 1200 ft

METAR: EDLW 271450Z 02006KT 9999 OVC012 05/02 Q1040

Hora: 16:13 (15:13 UTC)

Pronòstic

L'informe es va fer fa 4 hores i 13 minuts, a les 11:00 UTC
Pronòstic vàlid del 27 a les 12 UTC al 28 a les 12 UTC
Vent 3 kt amb direcció variable
Visibilitat 10 km o més
Cel ennuvolat a una alçada de 1500 ft
Evolucionant progressivament
l' 28 a les 03 UTC al 28 a les 06 UTC
Visibilitat: 4000 m
Cel ennuvolat a una alçada de 800 ft
boirina
Probabilitat 30% :
Temporalment
l' 28 a les 07 UTC al 28 a les 10 UTC
Cel ennuvolat a una alçada de 400 ft

TAF: EDLW 271100Z 2712/2812 VRB03KT 9999 BKN015 BECMG 2803/2806 4000 BR BKN008 PROB30 TEMPO 2807/2810 BKN004

Observacions i pronòstics meteorològics de més de 4000 aeroports (METAR i TAF).

Les estacions disponibles són els punts grocs i vermells al mapa.

Posi el ratolí al punt desitjat per veure el nom de l'estació.

Feu clic per veure les observacions i els pronòstics meteorològics.

Per canviar el mapa: feu clic els botons verds amb una creu de color negre per apropar; al botó verd amb un guió per allunyar la imatge; o en les fletxes verdes per a mapes adjacents.


METAR-TAF: